Position Fahrer Laps Zeit Diff Beste Runde Fahrzeug Status Gesamt Bonuspunkte Strafpunkte
1 Domi Hofmann 15 25:50.457 - 1:42.161 BMW M240i Cup Beendet 76 0 0
2 Florian Maak 15 25:51.468 0:01.011 1:42.406 BMW M240i Cup Beendet 71 0 0
3 Luis Roters 15 25:52.324 0:01.867 1:42.250 BMW M240i Cup Beendet 67 0 0
4 Alessio Bender 15 26:01.898 0:11.441 1:42.747 BMW M240i Cup Beendet 64 0 0
5 Christian Köhne 15 26:02.084 0:11.627 1:42.864 BMW M240i Cup Beendet 62 0 0
6 Philip Goik 15 26:04.135 0:13.678 1:42.494 BMW M240i Cup Beendet 60 0 0
7 Fabian Wilke 15 26:05.222 0:14.765 1:43.147 BMW M240i Cup Beendet 58 0 0
8 Lukas König 15 26:07.322 0:16.865 1:43.225 BMW M240i Cup Beendet 56 0 0
9 Lars Braun 15 26:12.876 0:22.419 1:42.828 BMW M240i Cup Beendet 54 0 0
10 Pascal Reihe 15 26:15.777 0:25.320 1:43.172 BMW M240i Cup Beendet 52 0 0
11 Noah Cebulla 15 26:20.452 0:29.995 1:42.547 BMW M240i Cup Beendet 50 0 0
12 Andreas Wagner 15 26:23.473 0:33.016 1:43.692 BMW M240i Cup Beendet 49 0 0
13 Gero Mulkau 15 26:24.149 0:33.692 1:43.417 BMW M240i Cup Beendet 48 0 0
14 Florian Ponath 15 26:32.894 0:42.437 1:43.789 BMW M240i Cup Beendet 47 0 0
15 Sebastian Ponath 15 26:37.816 0:47.359 1:43.564 BMW M240i Cup Beendet 46 0 0
16 Maximilian Gladki 15 26:48.140 0:57.683 1:43.340 BMW M240i Cup Beendet 45 0 0
17 Alexander Fischbock 15 26:51.928 1:01.471 1:45.040 BMW M240i Cup Beendet 44 0 0
18 Damian Gladki 15 27:06.974 1:16.517 1:45.399 BMW M240i Cup Beendet 43 0 0

Rennverlauf

Die schnellsten 5 pro Runde

Runde 1

Pos Rennpos Fahrer Zeit S1 S2 S3 Diff
1 1 Christian Köhne 1:50.983 0:41.048 0:40.068 0:29.867 -
2 2 Florian Maak 1:51.616 0:41.893 0:40.343 0:29.380 0:00.633
3 3 Alessio Bender 1:52.261 0:41.858 0:40.559 0:29.844 0:01.278
4 4 Luis Roters 1:52.718 0:42.699 0:40.131 0:29.888 0:01.735
5 5 Domi Hofmann 1:52.855 0:43.146 0:40.261 0:29.448 0:01.872

Runde 2

Pos Rennpos Fahrer Zeit S1 S2 S3 Diff
1 1 Florian Maak 1:42.948 0:33.490 0:40.009 0:29.449 -
2 8 Philip Goik 1:43.326 0:33.994 0:39.658 0:29.674 0:00.378
3 6 Fabian Wilke 1:43.414 0:33.736 0:39.636 0:30.042 0:00.466
4 4 Domi Hofmann 1:43.622 0:33.562 0:39.901 0:30.159 0:00.674
5 13 Pascal Reihe 1:43.721 0:33.868 0:40.239 0:29.614 0:00.773

Runde 3

Pos Rennpos Fahrer Zeit S1 S2 S3 Diff
1 1 Florian Maak 1:42.406 0:33.461 0:39.393 0:29.552 -
2 15 Noah Cebulla 1:42.621 0:33.595 0:39.483 0:29.543 0:00.215
3 2 Christian Köhne 1:42.959 0:33.632 0:39.628 0:29.699 0:00.553
4 3 Domi Hofmann 1:43.250 0:33.896 0:39.727 0:29.627 0:00.844
5 7 Philip Goik 1:43.288 0:34.024 0:39.739 0:29.525 0:00.882

Runde 4

Pos Rennpos Fahrer Zeit S1 S2 S3 Diff
1 3 Domi Hofmann 1:42.171 0:33.343 0:39.460 0:29.368 -
2 1 Florian Maak 1:42.601 0:33.558 0:39.532 0:29.511 0:00.430
3 7 Philip Goik 1:42.749 0:33.598 0:39.479 0:29.672 0:00.578
4 2 Christian Köhne 1:42.864 0:33.636 0:39.681 0:29.547 0:00.693
5 4 Luis Roters 1:42.931 0:33.460 0:39.632 0:29.839 0:00.760

Runde 5

Pos Rennpos Fahrer Zeit S1 S2 S3 Diff
1 4 Luis Roters 1:42.250 0:33.503 0:39.380 0:29.367 -
2 1 Florian Maak 1:42.560 0:33.467 0:39.565 0:29.528 0:00.310
3 2 Domi Hofmann 1:42.644 0:33.430 0:39.424 0:29.790 0:00.394
4 5 Alessio Bender 1:42.747 0:33.743 0:39.501 0:29.503 0:00.497
5 14 Noah Cebulla 1:43.036 0:33.812 0:39.524 0:29.700 0:00.786

Runde 6

Pos Rennpos Fahrer Zeit S1 S2 S3 Diff
1 2 Domi Hofmann 1:42.161 0:33.379 0:39.353 0:29.429 -
2 1 Florian Maak 1:42.508 0:33.482 0:39.402 0:29.624 0:00.347
3 4 Luis Roters 1:42.543 0:33.567 0:39.375 0:29.601 0:00.382
4 13 Noah Cebulla 1:42.547 0:33.571 0:39.447 0:29.529 0:00.386
5 5 Alessio Bender 1:42.820 0:33.578 0:39.677 0:29.565 0:00.659

Runde 7

Pos Rennpos Fahrer Zeit S1 S2 S3 Diff
1 2 Domi Hofmann 1:42.395 0:33.442 0:39.461 0:29.492 -
2 3 Luis Roters 1:42.411 0:33.637 0:39.361 0:29.413 0:00.016
3 1 Florian Maak 1:42.606 0:33.531 0:39.447 0:29.628 0:00.211
4 4 Christian Köhne 1:43.353 0:33.927 0:39.878 0:29.548 0:00.958
5 7 Philip Goik 1:43.410 0:34.065 0:39.590 0:29.755 0:01.015

Runde 8

Pos Rennpos Fahrer Zeit S1 S2 S3 Diff
1 3 Luis Roters 1:42.298 0:33.484 0:39.348 0:29.466 -
2 2 Domi Hofmann 1:42.607 0:33.451 0:39.524 0:29.632 0:00.309
3 1 Florian Maak 1:42.644 0:33.543 0:39.469 0:29.632 0:00.346
4 6 Philip Goik 1:42.707 0:33.623 0:39.506 0:29.578 0:00.409
5 5 Alessio Bender 1:43.145 0:33.562 0:39.793 0:29.790 0:00.847

Runde 9

Pos Rennpos Fahrer Zeit S1 S2 S3 Diff
1 3 Luis Roters 1:42.372 0:33.486 0:39.419 0:29.467 -
2 2 Domi Hofmann 1:42.533 0:33.540 0:39.406 0:29.587 0:00.161
3 6 Philip Goik 1:42.728 0:33.581 0:39.475 0:29.672 0:00.356
4 1 Florian Maak 1:43.021 0:33.590 0:39.609 0:29.822 0:00.649
5 5 Alessio Bender 1:43.201 0:33.694 0:39.757 0:29.750 0:00.829

Runde 10

Pos Rennpos Fahrer Zeit S1 S2 S3 Diff
1 6 Philip Goik 1:42.494 0:33.554 0:39.231 0:29.709 -
2 2 Domi Hofmann 1:42.571 0:33.410 0:39.668 0:29.493 0:00.077
3 3 Luis Roters 1:42.631 0:33.565 0:39.442 0:29.624 0:00.137
4 10 Noah Cebulla 1:42.634 0:33.959 0:39.349 0:29.326 0:00.140
5 1 Florian Maak 1:42.853 0:33.719 0:39.430 0:29.704 0:00.359

Runde 11

Pos Rennpos Fahrer Zeit S1 S2 S3 Diff
1 3 Luis Roters 1:42.466 0:33.432 0:39.582 0:29.452 -
2 10 Noah Cebulla 1:42.660 0:33.531 0:39.379 0:29.750 0:00.194
3 2 Domi Hofmann 1:42.705 0:33.535 0:39.618 0:29.552 0:00.239
4 1 Florian Maak 1:42.943 0:33.566 0:39.492 0:29.885 0:00.477
5 6 Philip Goik 1:42.981 0:33.618 0:39.307 0:30.056 0:00.515

Runde 12

Pos Rennpos Fahrer Zeit S1 S2 S3 Diff
1 2 Domi Hofmann 1:42.528 0:33.430 0:39.357 0:29.741 -
2 3 Luis Roters 1:42.642 0:33.522 0:39.379 0:29.741 0:00.114
3 1 Florian Maak 1:42.799 0:33.549 0:39.550 0:29.700 0:00.271
4 7 Fabian Wilke 1:43.377 0:33.860 0:39.650 0:29.867 0:00.849
5 10 Pascal Reihe 1:43.803 0:33.828 0:40.158 0:29.817 0:01.275

Runde 13

Pos Rennpos Fahrer Zeit S1 S2 S3 Diff
1 3 Luis Roters 1:42.536 0:33.484 0:39.487 0:29.565 -
2 2 Domi Hofmann 1:42.635 0:33.632 0:39.582 0:29.421 0:00.099
3 1 Florian Maak 1:43.051 0:33.742 0:39.613 0:29.696 0:00.515
4 4 Alessio Bender 1:43.456 0:33.818 0:39.709 0:29.929 0:00.920
5 9 Lars Braun 1:43.515 0:33.693 0:40.032 0:29.790 0:00.979

Runde 14

Pos Rennpos Fahrer Zeit S1 S2 S3 Diff
1 11 Noah Cebulla 1:43.036 0:33.637 0:39.506 0:29.893 -
2 1 Domi Hofmann 1:43.039 0:33.784 0:39.569 0:29.686 0:00.003
3 3 Luis Roters 1:43.165 0:33.973 0:39.514 0:29.678 0:00.129
4 5 Philip Goik 1:43.203 0:33.700 0:39.425 0:30.078 0:00.167
5 6 Christian Köhne 1:43.490 0:33.939 0:39.752 0:29.799 0:00.454

Runde 15

Pos Rennpos Fahrer Zeit S1 S2 S3 Diff
1 1 Domi Hofmann 1:42.799 0:33.629 0:39.502 0:29.668 -
2 11 Noah Cebulla 1:43.038 0:33.535 0:39.541 0:29.962 0:00.239
3 2 Florian Maak 1:43.332 0:33.869 0:39.663 0:29.800 0:00.533
4 3 Luis Roters 1:43.695 0:34.358 0:39.632 0:29.705 0:00.896
5 9 Lars Braun 1:43.917 0:33.824 0:40.042 0:30.051 0:01.118

SERVER

0 / 61
virtualracing.org #1 GTM
Training 1Lime Rock Park -- Uphill Chicane
0 / 81
virtualracing.org #3 FS
Training 1Oulton Park International NC
0 / 81
virtualracing.org #4 LSM
Training 1Spa-Francorchamps Endurance
0 / 34
virtualracing.org #5 VRF1S
Training 1Zandvoort 2021
0 / 34
virtualracing.org #6 VRCS
Training 1Donington Park National Circuit
0 / 81
virtualracing.org #P1 BTCC
Training 1Oulton Park International NC
0 / 81
virtualracing.org #P2 CA
Training 1Silverstone Grand Prix
0 / 34
virtualracing.org #P3 Mini
Training 1Silverstone National
0 / 33
virtualracing.org #P4 IR18
Training 1Indianapolis Road Course
0/31
virtualracing.org#4 GTC Training Standard
TrainingDaytona International Speedway - Road Course
0/31
virtualracing.org#5 GTC Training A
TrainingDaytona International Speedway - Road Course
0/24
virtualracing.org#30 ALT Training
TrainingFuji Speedway - Grand Prix Circuit 1968
0/32
virtualracing.org#33 GTC Starttest
TrainingDaytona International Speedway - Road Course